AirNav   BOSE ProFlight Aviation Headset
 
 393 users online  

3J1 Ridgeland-Claude Dean Airport
Ridgeland, South Carolina, USA

GOING TO RIDGELAND?


FAA INFORMATION EFFECTIVE 21 JUNE 2018

Location

FAA Identifier: 3J1
Lat/Long: 32-29-36.3000N / 080-59-30.3000W
32-29.605000N / 080-59.505000W
32.4934167 / -80.9917500
(estimated)
Elevation: 79 ft. / 24.1 m (surveyed)
Variation: 04W (1985)
From city: 1 mile NW of RIDGELAND, SC
Time zone: UTC -4 (UTC -5 during Standard Time)
Zip code: 29936

Airport Operations

Airport use: Open to the public
Activation date: 12/1942
Control tower: no
ARTCC: JACKSONVILLE CENTER
FSS: ANDERSON FLIGHT SERVICE STATION
NOTAMs facility: AND (NOTAM-D service available)
Attendance: 0900-DUSK
Wind indicator: lighted
Segmented circle: no
Lights: SS-SR
Beacon: white-green (lighted land airport)
Operates sunset to sunrise.

Airport Communications

CTAF/UNICOM: 123.075
WX AWOS-3 at ARW (19 nm E): 119.675 (843-524-1000)

Nearby radio navigation aids

VOR radial/distance  VOR name  Freq  Var
SAVr033/23.3SAVANNAH VORTAC115.9506W
SVNr017/29.9HUNTER VOR/DME111.6002W
ALDr155/(34.6)ALLENDALE VOR116.7001W

 
NDB name  Hdg/Dist  Freq  Var  ID
SYLVANIA111/31.924504WJYL .--- -.-- .-..

Airport Services

Fuel available: 100LL
Parking: tiedowns
Airframe service: NONE
Powerplant service: NONE
Bottled oxygen: NONE
Bulk oxygen: NONE

Runway Information

Runway 3/21

Dimensions: 2692 x 70 ft. / 821 x 21 m
Surface: asphalt, in good condition
Weight bearing capacity: 
Single wheel: 12.5
Runway edge lights: medium intensity
RUNWAY 3  RUNWAY 21
Latitude: 32-29.412320N32-29.796492N
Longitude: 080-59.636843W080-59.374062W
Elevation: 49.0 ft.79.0 ft.
Gradient: 1.1% UP
Traffic pattern: leftleft
Runway heading: 034 magnetic, 030 true214 magnetic, 210 true
Markings: basic, in good conditionbasic, in good condition
Visual slope indicator: 2-light PAPI on left (3.25 degrees glide path)
Obstructions: 55 ft. trees, 533 ft. from runway, 154 ft. right of centerline, 6:1 slope to clear
RY 03, 4 FT TO 17 FT BUSHES AND TREES, BOTH SIDES OF RY; 0 - 200 FT FM RY END.
45 ft. trees, 626 ft. from runway, 94 ft. left of centerline, 9:1 slope to clear
50 FT TREES 100-150 FT RIGHT OF CNTRLN 1000 FT FM THLD.

Airport Ownership and Management from official FAA records

Ownership: Publicly-owned
Owner: COUNTY OF JASPER
PO BOX 653
RIDGELAND, SC 29936
Phone 843-726-7724
Manager: CLAUDE DEAN
P.O. BOX 653
RIDGELAND, SC 29936
Phone 843-726-7759

Airport Operational Statistics

Aircraft based on the field: 58
Single engine airplanes: 49
Multi engine airplanes: 2
Gliders airplanes: 7
    
Aircraft operations: avg 23/day *
84% local general aviation
13% transient general aviation
3% military
* for 12-month period ending 24 August 2017

Additional Remarks

RY 03 20' DROP AT END OF PAVEMENT.
GLIDER OPNS INVOF ARPT.

Instrument Procedures

There are no published instrument procedures at 3J1.

Some nearby airports with instrument procedures:

KNBC - Beaufort Marine Corps Air Station (Merritt Field) (14 nm E)
KARW - Beaufort County Airport (19 nm E)
KHXD - Hilton Head Airport (22 nm SE)
KSAV - Savannah/Hilton Head International Airport (24 nm SW)
KSVN - Hunter Army Airfield (30 nm S)
 
Loc | Ops | Rwys | IFR | FBO | Links
Com | Nav | Svcs | Stats | Notes

AirNav Hotels Sweepstakes
 
Area around 3J1 (Ridgeland-Claude Dean Airport)
 
Road maps at: MapQuest Bing Google
 
Aerial photo
WARNING: Photo may not be current or correct
Aerial photo of 3J1 (Ridgeland-Claude Dean Airport)
Do you have a better or more recent aerial photo of Ridgeland-Claude Dean Airport that you would like to share? If so, please send us your photo.

 
Sectional chart

 
Airport distance calculator
Flying to Ridgeland-Claude Dean Airport? Find the distance to fly.

From to 3J1

Sunrise and sunset
Times for 23-Jun-2018
 Local
(UTC-4)
 Zulu
(UTC)
Morning civil twilight05:5009:50
Sunrise06:1910:19
Sunset20:3400:34
Evening civil twilight21:0201:02

Current date and time
Zulu (UTC)  23-Jun-2018 09:12:10
Local (UTC-4)  23-Jun-2018 05:12:10
 
METAR
KNBC 
14nm E 
230856Z AUTO 22003KT 10SM CLR 26/24 A2988 RMK AO2 SLP118 T02610239 56006 TSNO $
KARW 
19nm E 
230855Z AUTO 22004KT 7SM CLR 26/23 A2988 RMK AO2
KHXD 
22nm SE 
230855Z AUTO 22008KT 10SM CLR 27/24 A2989 RMK AO2
KSAV 
25nm SW 
230853Z AUTO 22005KT 10SM CLR 25/23 A2989 RMK AO2 SLP122 T02500233 55005
TAF
KNBC 
14nm E 
2121/2221 23006KT 9999 SCT050 BKN300 QNH2980INS BECMG 2208/2210 18004KT FEW030 SCT100 BKN150 QNH2978INS T25/2209Z T36/2219Z COR 0030
NOTAMs
Click for the latest NOTAMs
NOTAMs are issued by the DoD/FAA and will open in a separate window not controlled by AirNav.

 

 
 

FBO, Fuel Providers, and Aircraft Ground Support

  
 Business Name 
 
 Contact 
 
 Services / Description 
 
Fuel Prices
 
Comments
  
AircraftConstructor Inc 843-717-2629
[email]
Aviation fuel

More info about AircraftConstructor Inc
Phillips 66
100LL
SS $5.19 
 Updated 20-Jun-2018
 
   write
SS=Self service
Update Fuel Prices
 

Aviation Businesses, Services, and Facilities

  
 Business Name 
 
 Contact 
 
 Services / Description 
 
Distance
 
Comments
  
GUNZ Aviation 843-441-3867
843-816-4612
[email]
Aircraft maintenance, Aircraft modifications, Aircraft parts

More info about GUNZ Aviation
on airport  
   write
 

Would you like to see your business listed on this page?

 If your business provides an interesting product or service to pilots, flight crews, aircraft, or users of the Ridgeland-Claude Dean Airport, you should consider listing it here.  To start the listing process, click on the button below
 
Add a business
 

Other Pages about Ridgeland-Claude Dean Airport

Update a link
 
Copyright © AirNav, LLC. All rights reserved. Privacy Policy  Contact